sensor_id;sensor_type;location;lat;lon;timestamp;pressure;altitude;pressure_sealevel;temperature
76713;BMP280;65640;43.154;25.658;2023-07-13T00:00:33;100580.53;;;23.61
76713;BMP280;65640;43.154;25.658;2023-07-13T00:02:58;100580.66;;;23.72
76713;BMP280;65640;43.154;25.658;2023-07-13T00:05:23;100583.97;;;23.62
76713;BMP280;65640;43.154;25.658;2023-07-13T00:07:50;100581.13;;;23.51
76713;BMP280;65640;43.154;25.658;2023-07-13T00:10:16;100572.19;;;23.40
76713;BMP280;65640;43.154;25.658;2023-07-13T00:12:43;100578.59;;;23.35
76713;BMP280;65640;43.154;25.658;2023-07-13T00:15:14;100578.19;;;23.33
76713;BMP280;65640;43.154;25.658;2023-07-13T00:17:41;100575.06;;;23.31
76713;BMP280;65640;43.154;25.658;2023-07-13T00:20:10;100578.13;;;23.30
76713;BMP280;65640;43.154;25.658;2023-07-13T00:22:36;100570.44;;;23.28
76713;BMP280;65640;43.154;25.658;2023-07-13T00:25:02;100571.63;;;23.31
76713;BMP280;65640;43.154;25.658;2023-07-13T00:27:27;100567.44;;;23.30
76713;BMP280;65640;43.154;25.658;2023-07-13T00:29:55;100558.25;;;23.31
76713;BMP280;65640;43.154;25.658;2023-07-13T00:32:20;100563.81;;;23.41
76713;BMP280;65640;43.154;25.658;2023-07-13T00:34:46;100561.31;;;23.29
76713;BMP280;65640;43.154;25.658;2023-07-13T00:37:12;100565.88;;;23.29
76713;BMP280;65640;43.154;25.658;2023-07-13T00:39:37;100557.25;;;23.39
76713;BMP280;65640;43.154;25.658;2023-07-13T00:42:04;100555.81;;;23.41
76713;BMP280;65640;43.154;25.658;2023-07-13T00:44:29;100551.41;;;23.30
76713;BMP280;65640;43.154;25.658;2023-07-13T00:46:55;100557.34;;;23.20
76713;BMP280;65640;43.154;25.658;2023-07-13T00:49:25;100564.94;;;23.18
76713;BMP280;65640;43.154;25.658;2023-07-13T00:51:56;100559.47;;;23.11
76713;BMP280;65640;43.154;25.658;2023-07-13T00:54:35;100552.59;;;23.10
76713;BMP280;65640;43.154;25.658;2023-07-13T00:57:05;100550.63;;;23.07
76713;BMP280;65640;43.154;25.658;2023-07-13T00:59:33;100552.38;;;22.99
76713;BMP280;65640;43.154;25.658;2023-07-13T01:01:59;100550.13;;;23.01
76713;BMP280;65640;43.154;25.658;2023-07-13T01:04:25;100553.84;;;22.93
76713;BMP280;65640;43.154;25.658;2023-07-13T01:06:51;100557.13;;;22.86
76713;BMP280;65640;43.154;25.658;2023-07-13T01:09:17;100560.88;;;22.82
76713;BMP280;65640;43.154;25.658;2023-07-13T01:11:43;100553.59;;;22.82
76713;BMP280;65640;43.154;25.658;2023-07-13T01:14:10;100551.25;;;22.77
76713;BMP280;65640;43.154;25.658;2023-07-13T01:16:37;100554.03;;;22.84
76713;BMP280;65640;43.154;25.658;2023-07-13T01:19:30;100550.03;;;22.94
76713;BMP280;65640;43.154;25.658;2023-07-13T01:22:11;100553.91;;;22.96
76713;BMP280;65640;43.154;25.658;2023-07-13T01:24:39;100553.13;;;22.96
76713;BMP280;65640;43.154;25.658;2023-07-13T01:27:07;100550.09;;;22.97
76713;BMP280;65640;43.154;25.658;2023-07-13T01:29:34;100549.47;;;22.85
76713;BMP280;65640;43.154;25.658;2023-07-13T01:32:00;100553.50;;;22.75
76713;BMP280;65640;43.154;25.658;2023-07-13T01:34:27;100555.81;;;22.77
76713;BMP280;65640;43.154;25.658;2023-07-13T01:36:53;100546.84;;;22.66
76713;BMP280;65640;43.154;25.658;2023-07-13T01:39:22;100554.59;;;22.71
76713;BMP280;65640;43.154;25.658;2023-07-13T01:41:48;100556.34;;;22.63
76713;BMP280;65640;43.154;25.658;2023-07-13T01:44:13;100551.00;;;22.63
76713;BMP280;65640;43.154;25.658;2023-07-13T01:46:39;100550.28;;;22.66
76713;BMP280;65640;43.154;25.658;2023-07-13T01:49:04;100545.03;;;22.70
76713;BMP280;65640;43.154;25.658;2023-07-13T01:51:30;100545.44;;;22.72
76713;BMP280;65640;43.154;25.658;2023-07-13T01:53:55;100548.56;;;22.77
76713;BMP280;65640;43.154;25.658;2023-07-13T01:56:21;100550.00;;;22.71
76713;BMP280;65640;43.154;25.658;2023-07-13T01:58:46;100556.88;;;22.72
76713;BMP280;65640;43.154;25.658;2023-07-13T02:01:12;100560.19;;;22.66
76713;BMP280;65640;43.154;25.658;2023-07-13T02:03:37;100561.69;;;22.63
76713;BMP280;65640;43.154;25.658;2023-07-13T02:06:02;100560.91;;;22.63
76713;BMP280;65640;43.154;25.658;2023-07-13T02:08:28;100562.41;;;22.64
76713;BMP280;65640;43.154;25.658;2023-07-13T02:10:54;100557.59;;;22.69
76713;BMP280;65640;43.154;25.658;2023-07-13T02:13:19;100550.00;;;22.71
76713;BMP280;65640;43.154;25.658;2023-07-13T02:15:45;100552.25;;;22.69
76713;BMP280;65640;43.154;25.658;2023-07-13T02:18:10;100546.66;;;22.74
76713;BMP280;65640;43.154;25.658;2023-07-13T02:20:36;100561.88;;;22.74
76713;BMP280;65640;43.154;25.658;2023-07-13T02:23:01;100560.66;;;22.71
76713;BMP280;65640;43.154;25.658;2023-07-13T02:25:27;100564.91;;;22.72
76713;BMP280;65640;43.154;25.658;2023-07-13T02:27:52;100554.22;;;22.72
76713;BMP280;65640;43.154;25.658;2023-07-13T02:30:18;100562.31;;;22.79
76713;BMP280;65640;43.154;25.658;2023-07-13T02:32:43;100570.94;;;22.69
76713;BMP280;65640;43.154;25.658;2023-07-13T02:35:09;100572.06;;;22.68
76713;BMP280;65640;43.154;25.658;2023-07-13T02:37:35;100577.59;;;22.60
76713;BMP280;65640;43.154;25.658;2023-07-13T02:40:00;100568.41;;;22.57
76713;BMP280;65640;43.154;25.658;2023-07-13T02:42:26;100567.16;;;22.51
76713;BMP280;65640;43.154;25.658;2023-07-13T02:44:51;100567.75;;;22.44
76713;BMP280;65640;43.154;25.658;2023-07-13T02:47:17;100566.16;;;22.40
76713;BMP280;65640;43.154;25.658;2023-07-13T02:49:42;100571.75;;;22.35
76713;BMP280;65640;43.154;25.658;2023-07-13T02:52:07;100570.88;;;22.27
76713;BMP280;65640;43.154;25.658;2023-07-13T02:54:33;100567.53;;;22.34
76713;BMP280;65640;43.154;25.658;2023-07-13T02:56:58;100576.41;;;22.38
76713;BMP280;65640;43.154;25.658;2023-07-13T02:59:24;100576.25;;;22.31
76713;BMP280;65640;43.154;25.658;2023-07-13T03:01:49;100578.22;;;22.34
76713;BMP280;65640;43.154;25.658;2023-07-13T03:04:14;100574.84;;;22.37
76713;BMP280;65640;43.154;25.658;2023-07-13T03:06:44;100579.19;;;22.26
76713;BMP280;65640;43.154;25.658;2023-07-13T03:09:10;100582.16;;;22.21
76713;BMP280;65640;43.154;25.658;2023-07-13T03:11:37;100581.72;;;22.19
76713;BMP280;65640;43.154;25.658;2023-07-13T03:14:03;100580.75;;;22.27
76713;BMP280;65640;43.154;25.658;2023-07-13T03:16:28;100580.06;;;22.30
76713;BMP280;65640;43.154;25.658;2023-07-13T03:18:54;100576.47;;;22.41
76713;BMP280;65640;43.154;25.658;2023-07-13T03:21:20;100572.44;;;22.48
76713;BMP280;65640;43.154;25.658;2023-07-13T03:23:46;100575.94;;;22.52
76713;BMP280;65640;43.154;25.658;2023-07-13T03:26:15;100577.41;;;22.49
76713;BMP280;65640;43.154;25.658;2023-07-13T03:28:41;100572.06;;;22.49
76713;BMP280;65640;43.154;25.658;2023-07-13T03:31:16;100569.09;;;22.54
76713;BMP280;65640;43.154;25.658;2023-07-13T03:33:42;100573.72;;;22.57
76713;BMP280;65640;43.154;25.658;2023-07-13T03:36:11;100577.69;;;22.63
76713;BMP280;65640;43.154;25.658;2023-07-13T03:38:36;100567.56;;;22.72
76713;BMP280;65640;43.154;25.658;2023-07-13T03:41:01;100571.47;;;22.78
76713;BMP280;65640;43.154;25.658;2023-07-13T03:43:27;100576.13;;;22.81
76713;BMP280;65640;43.154;25.658;2023-07-13T03:45:52;100572.31;;;22.82
76713;BMP280;65640;43.154;25.658;2023-07-13T03:48:18;100578.06;;;22.84
76713;BMP280;65640;43.154;25.658;2023-07-13T03:50:43;100574.00;;;22.90
76713;BMP280;65640;43.154;25.658;2023-07-13T03:53:09;100572.59;;;22.96
76713;BMP280;65640;43.154;25.658;2023-07-13T03:55:34;100578.31;;;22.98
76713;BMP280;65640;43.154;25.658;2023-07-13T03:58:24;100573.81;;;23.02
76713;BMP280;65640;43.154;25.658;2023-07-13T04:00:51;100580.00;;;23.07
76713;BMP280;65640;43.154;25.658;2023-07-13T04:03:17;100580.47;;;23.12
76713;BMP280;65640;43.154;25.658;2023-07-13T04:05:42;100579.72;;;23.12
76713;BMP280;65640;43.154;25.658;2023-07-13T04:08:08;100581.38;;;23.20
76713;BMP280;65640;43.154;25.658;2023-07-13T04:10:33;100585.31;;;23.26
76713;BMP280;65640;43.154;25.658;2023-07-13T04:12:58;100585.69;;;23.28
76713;BMP280;65640;43.154;25.658;2023-07-13T04:15:24;100588.09;;;23.33
76713;BMP280;65640;43.154;25.658;2023-07-13T04:17:49;100577.97;;;23.45
76713;BMP280;65640;43.154;25.658;2023-07-13T04:20:15;100583.56;;;23.60
76713;BMP280;65640;43.154;25.658;2023-07-13T04:22:40;100580.72;;;23.75
76713;BMP280;65640;43.154;25.658;2023-07-13T04:25:06;100589.06;;;23.70
76713;BMP280;65640;43.154;25.658;2023-07-13T04:27:31;100582.41;;;23.61
76713;BMP280;65640;43.154;25.658;2023-07-13T04:29:57;100576.16;;;23.76
76713;BMP280;65640;43.154;25.658;2023-07-13T04:32:22;100584.41;;;23.93
76713;BMP280;65640;43.154;25.658;2023-07-13T04:34:48;100589.88;;;24.00
76713;BMP280;65640;43.154;25.658;2023-07-13T04:37:19;100577.59;;;24.26
76713;BMP280;65640;43.154;25.658;2023-07-13T04:39:45;100576.03;;;24.54
76713;BMP280;65640;43.154;25.658;2023-07-13T04:42:10;100582.53;;;24.94
76713;BMP280;65640;43.154;25.658;2023-07-13T04:44:35;100579.31;;;25.22
76713;BMP280;65640;43.154;25.658;2023-07-13T04:47:01;100589.75;;;25.34
76713;BMP280;65640;43.154;25.658;2023-07-13T04:49:26;100590.66;;;25.55
76713;BMP280;65640;43.154;25.658;2023-07-13T04:51:52;100586.59;;;25.79
76713;BMP280;65640;43.154;25.658;2023-07-13T04:54:17;100595.19;;;26.09
76713;BMP280;65640;43.154;25.658;2023-07-13T04:56:43;100600.22;;;26.28
76713;BMP280;65640;43.154;25.658;2023-07-13T04:59:08;100603.19;;;26.02
76713;BMP280;65640;43.154;25.658;2023-07-13T05:01:33;100603.88;;;25.85
76713;BMP280;65640;43.154;25.658;2023-07-13T05:03:59;100607.72;;;25.84
76713;BMP280;65640;43.154;25.658;2023-07-13T05:06:25;100606.91;;;25.80
76713;BMP280;65640;43.154;25.658;2023-07-13T05:08:50;100602.25;;;25.73
76713;BMP280;65640;43.154;25.658;2023-07-13T05:11:18;100598.47;;;25.78
76713;BMP280;65640;43.154;25.658;2023-07-13T05:13:44;100603.81;;;25.74
76713;BMP280;65640;43.154;25.658;2023-07-13T05:16:09;100595.38;;;25.76
76713;BMP280;65640;43.154;25.658;2023-07-13T05:18:35;100600.88;;;25.97
76713;BMP280;65640;43.154;25.658;2023-07-13T05:21:02;100603.22;;;26.06
76713;BMP280;65640;43.154;25.658;2023-07-13T05:23:28;100613.31;;;26.33
76713;BMP280;65640;43.154;25.658;2023-07-13T05:25:53;100614.16;;;26.69
76713;BMP280;65640;43.154;25.658;2023-07-13T05:28:19;100607.28;;;26.79
76713;BMP280;65640;43.154;25.658;2023-07-13T05:30:48;100601.88;;;27.07
76713;BMP280;65640;43.154;25.658;2023-07-13T05:33:14;100603.44;;;27.22
76713;BMP280;65640;43.154;25.658;2023-07-13T05:35:40;100594.97;;;27.45
76713;BMP280;65640;43.154;25.658;2023-07-13T05:38:05;100597.50;;;27.87
76713;BMP280;65640;43.154;25.658;2023-07-13T05:40:31;100593.16;;;28.15
76713;BMP280;65640;43.154;25.658;2023-07-13T05:42:57;100595.38;;;28.34
76713;BMP280;65640;43.154;25.658;2023-07-13T05:45:22;100598.69;;;28.55
76713;BMP280;65640;43.154;25.658;2023-07-13T05:47:47;100595.53;;;28.64
76713;BMP280;65640;43.154;25.658;2023-07-13T05:50:13;100598.16;;;28.74
76713;BMP280;65640;43.154;25.658;2023-07-13T05:52:38;100599.34;;;28.70
76713;BMP280;65640;43.154;25.658;2023-07-13T05:55:04;100601.25;;;28.73
76713;BMP280;65640;43.154;25.658;2023-07-13T05:57:29;100603.06;;;28.87
76713;BMP280;65640;43.154;25.658;2023-07-13T05:59:55;100601.44;;;29.00
76713;BMP280;65640;43.154;25.658;2023-07-13T06:02:20;100604.75;;;29.14
76713;BMP280;65640;43.154;25.658;2023-07-13T06:04:46;100609.41;;;29.07
76713;BMP280;65640;43.154;25.658;2023-07-13T06:07:11;100610.34;;;28.90
76713;BMP280;65640;43.154;25.658;2023-07-13T06:09:36;100609.22;;;28.87
76713;BMP280;65640;43.154;25.658;2023-07-13T06:12:04;100608.78;;;28.96
76713;BMP280;65640;43.154;25.658;2023-07-13T06:14:30;100605.63;;;29.01
76713;BMP280;65640;43.154;25.658;2023-07-13T06:16:55;100610.50;;;29.16
76713;BMP280;65640;43.154;25.658;2023-07-13T06:19:21;100609.91;;;29.35
76713;BMP280;65640;43.154;25.658;2023-07-13T06:21:46;100609.56;;;29.33
76713;BMP280;65640;43.154;25.658;2023-07-13T06:24:11;100606.13;;;29.67
76713;BMP280;65640;43.154;25.658;2023-07-13T06:26:37;100600.44;;;29.88
76713;BMP280;65640;43.154;25.658;2023-07-13T06:29:02;100609.09;;;30.06
76713;BMP280;65640;43.154;25.658;2023-07-13T06:31:27;100612.16;;;30.35
76713;BMP280;65640;43.154;25.658;2023-07-13T06:33:53;100609.56;;;30.51
76713;BMP280;65640;43.154;25.658;2023-07-13T06:36:18;100615.34;;;30.76
76713;BMP280;65640;43.154;25.658;2023-07-13T06:38:44;100616.81;;;31.04
76713;BMP280;65640;43.154;25.658;2023-07-13T06:41:09;100614.03;;;31.07
76713;BMP280;65640;43.154;25.658;2023-07-13T06:43:35;100615.44;;;30.92
76713;BMP280;65640;43.154;25.658;2023-07-13T06:46:00;100616.25;;;31.12
76713;BMP280;65640;43.154;25.658;2023-07-13T06:48:26;100610.72;;;31.19
76713;BMP280;65640;43.154;25.658;2023-07-13T06:50:52;100611.25;;;31.30
76713;BMP280;65640;43.154;25.658;2023-07-13T06:53:19;100613.53;;;31.52
76713;BMP280;65640;43.154;25.658;2023-07-13T06:55:45;100610.31;;;31.76
76713;BMP280;65640;43.154;25.658;2023-07-13T06:58:11;100605.63;;;31.96
76713;BMP280;65640;43.154;25.658;2023-07-13T07:00:36;100607.63;;;32.28
76713;BMP280;65640;43.154;25.658;2023-07-13T07:03:02;100607.78;;;32.37
76713;BMP280;65640;43.154;25.658;2023-07-13T07:05:27;100609.66;;;32.40
76713;BMP280;65640;43.154;25.658;2023-07-13T07:07:54;100606.34;;;32.33
76713;BMP280;65640;43.154;25.658;2023-07-13T07:10:20;100609.31;;;32.38
76713;BMP280;65640;43.154;25.658;2023-07-13T07:12:46;100614.16;;;32.63
76713;BMP280;65640;43.154;25.658;2023-07-13T07:15:11;100610.34;;;32.89
76713;BMP280;65640;43.154;25.658;2023-07-13T07:17:37;100605.97;;;33.08
76713;BMP280;65640;43.154;25.658;2023-07-13T07:20:03;100606.91;;;33.30
76713;BMP280;65640;43.154;25.658;2023-07-13T07:22:29;100598.78;;;33.43
76713;BMP280;65640;43.154;25.658;2023-07-13T07:24:56;100595.44;;;33.51
76713;BMP280;65640;43.154;25.658;2023-07-13T07:27:22;100590.09;;;33.48
76713;BMP280;65640;43.154;25.658;2023-07-13T07:29:47;100602.38;;;33.52
76713;BMP280;65640;43.154;25.658;2023-07-13T07:32:12;100600.09;;;33.76
76713;BMP280;65640;43.154;25.658;2023-07-13T07:34:38;100595.44;;;33.89
76713;BMP280;65640;43.154;25.658;2023-07-13T07:37:04;100592.13;;;34.06
76713;BMP280;65640;43.154;25.658;2023-07-13T07:39:29;100602.03;;;34.00
76713;BMP280;65640;43.154;25.658;2023-07-13T07:41:55;100602.44;;;34.24
76713;BMP280;65640;43.154;25.658;2023-07-13T07:44:21;100596.78;;;34.53
76713;BMP280;65640;43.154;25.658;2023-07-13T07:46:47;100593.84;;;34.81
76713;BMP280;65640;43.154;25.658;2023-07-13T07:49:12;100598.09;;;35.04
76713;BMP280;65640;43.154;25.658;2023-07-13T07:51:38;100594.59;;;35.34
76713;BMP280;65640;43.154;25.658;2023-07-13T07:54:04;100600.56;;;35.42
76713;BMP280;65640;43.154;25.658;2023-07-13T07:56:29;100593.88;;;35.43
76713;BMP280;65640;43.154;25.658;2023-07-13T07:58:55;100591.38;;;35.57
76713;BMP280;65640;43.154;25.658;2023-07-13T08:01:20;100588.47;;;35.52
76713;BMP280;65640;43.154;25.658;2023-07-13T08:03:46;100586.75;;;35.76
76713;BMP280;65640;43.154;25.658;2023-07-13T08:06:11;100589.75;;;35.78
76713;BMP280;65640;43.154;25.658;2023-07-13T08:08:37;100587.19;;;35.84
76713;BMP280;65640;43.154;25.658;2023-07-13T08:11:04;100580.38;;;35.30
76713;BMP280;65640;43.154;25.658;2023-07-13T08:13:30;100585.97;;;35.76
76713;BMP280;65640;43.154;25.658;2023-07-13T08:15:56;100590.53;;;35.88
76713;BMP280;65640;43.154;25.658;2023-07-13T08:18:21;100590.72;;;36.02
76713;BMP280;65640;43.154;25.658;2023-07-13T08:20:47;100584.22;;;36.09
76713;BMP280;65640;43.154;25.658;2023-07-13T08:23:12;100591.31;;;35.97
76713;BMP280;65640;43.154;25.658;2023-07-13T08:25:37;100590.84;;;35.90
76713;BMP280;65640;43.154;25.658;2023-07-13T08:28:03;100584.50;;;35.93
76713;BMP280;65640;43.154;25.658;2023-07-13T08:30:29;100593.44;;;36.02
76713;BMP280;65640;43.154;25.658;2023-07-13T08:32:55;100593.19;;;36.27
76713;BMP280;65640;43.154;25.658;2023-07-13T08:35:20;100578.75;;;36.54
76713;BMP280;65640;43.154;25.658;2023-07-13T08:37:46;100589.03;;;36.77
76713;BMP280;65640;43.154;25.658;2023-07-13T08:40:12;100584.28;;;36.96
76713;BMP280;65640;43.154;25.658;2023-07-13T08:42:45;100587.53;;;36.85
76713;BMP280;65640;43.154;25.658;2023-07-13T08:45:14;100589.63;;;36.81
76713;BMP280;65640;43.154;25.658;2023-07-13T08:47:48;100583.13;;;36.79
76713;BMP280;65640;43.154;25.658;2023-07-13T08:50:21;100584.88;;;36.91
76713;BMP280;65640;43.154;25.658;2023-07-13T08:52:49;100580.91;;;37.10
76713;BMP280;65640;43.154;25.658;2023-07-13T08:55:18;100575.28;;;37.13
76713;BMP280;65640;43.154;25.658;2023-07-13T08:57:59;100572.25;;;37.11
76713;BMP280;65640;43.154;25.658;2023-07-13T09:00:34;100566.59;;;37.24
76713;BMP280;65640;43.154;25.658;2023-07-13T09:03:05;100564.22;;;37.64
76713;BMP280;65640;43.154;25.658;2023-07-13T09:05:40;100564.03;;;37.91
76713;BMP280;65640;43.154;25.658;2023-07-13T09:11:01;100551.75;;;37.87
76713;BMP280;65640;43.154;25.658;2023-07-13T09:13:44;100555.22;;;38.11
76713;BMP280;65640;43.154;25.658;2023-07-13T09:16:11;100556.28;;;38.28
76713;BMP280;65640;43.154;25.658;2023-07-13T09:18:56;100551.00;;;38.39
76713;BMP280;65640;43.154;25.658;2023-07-13T09:21:24;100539.28;;;38.53
76713;BMP280;65640;43.154;25.658;2023-07-13T09:23:58;100540.31;;;38.56
76713;BMP280;65640;43.154;25.658;2023-07-13T09:26:26;100547.63;;;38.44
76713;BMP280;65640;43.154;25.658;2023-07-13T09:28:57;100541.72;;;38.51
76713;BMP280;65640;43.154;25.658;2023-07-13T09:31:28;100540.06;;;38.39
76713;BMP280;65640;43.154;25.658;2023-07-13T09:33:59;100537.31;;;38.39
76713;BMP280;65640;43.154;25.658;2023-07-13T09:36:28;100544.66;;;38.48
76713;BMP280;65640;43.154;25.658;2023-07-13T09:39:25;100534.38;;;38.57
76713;BMP280;65640;43.154;25.658;2023-07-13T09:47:17;100546.28;;;38.54
76713;BMP280;65640;43.154;25.658;2023-07-13T09:49:43;100545.97;;;38.81
76713;BMP280;65640;43.154;25.658;2023-07-13T09:52:12;100544.09;;;38.58
76713;BMP280;65640;43.154;25.658;2023-07-13T09:54:39;100538.19;;;38.45
76713;BMP280;65640;43.154;25.658;2023-07-13T09:57:14;100545.38;;;38.92
76713;BMP280;65640;43.154;25.658;2023-07-13T09:59:43;100531.91;;;39.09
76713;BMP280;65640;43.154;25.658;2023-07-13T10:02:24;100519.94;;;39.46
76713;BMP280;65640;43.154;25.658;2023-07-13T10:05:16;100524.94;;;39.68
76713;BMP280;65640;43.154;25.658;2023-07-13T10:07:44;100526.31;;;39.78
76713;BMP280;65640;43.154;25.658;2023-07-13T10:10:15;100527.31;;;39.60
76713;BMP280;65640;43.154;25.658;2023-07-13T10:12:41;100535.06;;;39.22
76713;BMP280;65640;43.154;25.658;2023-07-13T10:15:14;100541.88;;;38.92
76713;BMP280;65640;43.154;25.658;2023-07-13T10:17:40;100535.88;;;38.88
76713;BMP280;65640;43.154;25.658;2023-07-13T10:20:06;100535.72;;;38.97
76713;BMP280;65640;43.154;25.658;2023-07-13T10:25:20;100524.44;;;38.74
76713;BMP280;65640;43.154;25.658;2023-07-13T10:27:49;100524.66;;;38.71
76713;BMP280;65640;43.154;25.658;2023-07-13T10:30:20;100520.47;;;38.75
76713;BMP280;65640;43.154;25.658;2023-07-13T10:32:48;100513.16;;;39.02
76713;BMP280;65640;43.154;25.658;2023-07-13T10:35:16;100520.94;;;38.89
76713;BMP280;65640;43.154;25.658;2023-07-13T10:38:04;100508.06;;;38.95
76713;BMP280;65640;43.154;25.658;2023-07-13T10:40:45;100503.56;;;39.12
76713;BMP280;65640;43.154;25.658;2023-07-13T10:43:18;100504.84;;;38.96
76713;BMP280;65640;43.154;25.658;2023-07-13T10:45:45;100505.06;;;39.13
76713;BMP280;65640;43.154;25.658;2023-07-13T10:48:14;100509.16;;;39.03
76713;BMP280;65640;43.154;25.658;2023-07-13T10:50:42;100512.00;;;38.94
76713;BMP280;65640;43.154;25.658;2023-07-13T10:53:30;100522.22;;;39.08
76713;BMP280;65640;43.154;25.658;2023-07-13T10:55:59;100518.50;;;39.31
76713;BMP280;65640;43.154;25.658;2023-07-13T10:58:37;100522.50;;;39.30
76713;BMP280;65640;43.154;25.658;2023-07-13T11:03:33;100522.97;;;39.08
76713;BMP280;65640;43.154;25.658;2023-07-13T11:06:17;100534.34;;;39.41
76713;BMP280;65640;43.154;25.658;2023-07-13T11:21:31;100517.19;;;39.66
76713;BMP280;65640;43.154;25.658;2023-07-13T11:24:14;100507.97;;;39.90
76713;BMP280;65640;43.154;25.658;2023-07-13T11:26:42;100499.31;;;40.28
76713;BMP280;65640;43.154;25.658;2023-07-13T11:29:32;100493.75;;;40.53
76713;BMP280;65640;43.154;25.658;2023-07-13T11:32:00;100491.03;;;40.59
76713;BMP280;65640;43.154;25.658;2023-07-13T11:34:31;100490.84;;;40.31
76713;BMP280;65640;43.154;25.658;2023-07-13T11:36:59;100494.34;;;40.32
76713;BMP280;65640;43.154;25.658;2023-07-13T11:39:41;100490.75;;;40.51
76713;BMP280;65640;43.154;25.658;2023-07-13T11:42:12;100478.84;;;40.65
76713;BMP280;65640;43.154;25.658;2023-07-13T11:44:46;100480.81;;;40.59
76713;BMP280;65640;43.154;25.658;2023-07-13T11:47:22;100478.53;;;40.58
76713;BMP280;65640;43.154;25.658;2023-07-13T11:49:50;100473.03;;;40.58
76713;BMP280;65640;43.154;25.658;2023-07-13T11:52:19;100467.03;;;40.54
76713;BMP280;65640;43.154;25.658;2023-07-13T11:54:49;100468.19;;;40.36
76713;BMP280;65640;43.154;25.658;2023-07-13T11:59:58;100464.59;;;40.61
76713;BMP280;65640;43.154;25.658;2023-07-13T12:02:37;100459.09;;;40.61
76713;BMP280;65640;43.154;25.658;2023-07-13T12:05:04;100459.44;;;40.80
76713;BMP280;65640;43.154;25.658;2023-07-13T12:07:33;100450.00;;;40.98
76713;BMP280;65640;43.154;25.658;2023-07-13T12:10:13;100441.56;;;41.07
76713;BMP280;65640;43.154;25.658;2023-07-13T12:12:55;100438.16;;;40.70
76713;BMP280;65640;43.154;25.658;2023-07-13T12:15:23;100432.59;;;40.58
76713;BMP280;65640;43.154;25.658;2023-07-13T12:17:50;100425.25;;;40.92
76713;BMP280;65640;43.154;25.658;2023-07-13T12:20:25;100425.81;;;41.07
76713;BMP280;65640;43.154;25.658;2023-07-13T12:22:51;100427.56;;;41.05
76713;BMP280;65640;43.154;25.658;2023-07-13T12:25:18;100419.50;;;40.96
76713;BMP280;65640;43.154;25.658;2023-07-13T12:27:48;100421.00;;;40.86
76713;BMP280;65640;43.154;25.658;2023-07-13T12:32:59;100409.72;;;40.78
76713;BMP280;65640;43.154;25.658;2023-07-13T12:35:28;100405.38;;;40.60
76713;BMP280;65640;43.154;25.658;2023-07-13T12:37:57;100407.81;;;40.47
76713;BMP280;65640;43.154;25.658;2023-07-13T12:40:29;100406.78;;;40.39
76713;BMP280;65640;43.154;25.658;2023-07-13T12:42:56;100390.44;;;40.19
76713;BMP280;65640;43.154;25.658;2023-07-13T12:45:26;100393.59;;;39.75
76713;BMP280;65640;43.154;25.658;2023-07-13T12:47:57;100389.50;;;39.65
76713;BMP280;65640;43.154;25.658;2023-07-13T12:50:33;100378.44;;;40.17
76713;BMP280;65640;43.154;25.658;2023-07-13T12:53:02;100375.72;;;40.22
76713;BMP280;65640;43.154;25.658;2023-07-13T12:55:48;100376.63;;;40.08
76713;BMP280;65640;43.154;25.658;2023-07-13T12:58:37;100373.84;;;40.03
76713;BMP280;65640;43.154;25.658;2023-07-13T13:01:04;100369.50;;;40.22
76713;BMP280;65640;43.154;25.658;2023-07-13T13:03:50;100377.94;;;40.18
76713;BMP280;65640;43.154;25.658;2023-07-13T13:08:44;100365.50;;;40.23
76713;BMP280;65640;43.154;25.658;2023-07-13T13:11:10;100368.84;;;40.43
76713;BMP280;65640;43.154;25.658;2023-07-13T13:13:35;100372.13;;;40.47
76713;BMP280;65640;43.154;25.658;2023-07-13T13:18:53;100361.47;;;40.72
76713;BMP280;65640;43.154;25.658;2023-07-13T13:21:20;100368.28;;;40.98
76713;BMP280;65640;43.154;25.658;2023-07-13T13:23:45;100364.59;;;41.07
76713;BMP280;65640;43.154;25.658;2023-07-13T13:26:13;100370.84;;;41.02
76713;BMP280;65640;43.154;25.658;2023-07-13T13:28:38;100368.13;;;40.48
76713;BMP280;65640;43.154;25.658;2023-07-13T13:31:04;100373.81;;;40.39
76713;BMP280;65640;43.154;25.658;2023-07-13T13:33:29;100374.06;;;40.41
76713;BMP280;65640;43.154;25.658;2023-07-13T13:35:56;100372.41;;;40.60
76713;BMP280;65640;43.154;25.658;2023-07-13T13:38:26;100373.16;;;40.55
76713;BMP280;65640;43.154;25.658;2023-07-13T13:40:52;100370.72;;;40.68
76713;BMP280;65640;43.154;25.658;2023-07-13T13:43:20;100364.44;;;40.62
76713;BMP280;65640;43.154;25.658;2023-07-13T13:45:46;100354.66;;;40.56
76713;BMP280;65640;43.154;25.658;2023-07-13T13:48:20;100367.88;;;40.46
76713;BMP280;65640;43.154;25.658;2023-07-13T13:50:47;100361.34;;;40.38
76713;BMP280;65640;43.154;25.658;2023-07-13T13:53:13;100360.50;;;40.27
76713;BMP280;65640;43.154;25.658;2023-07-13T13:55:39;100363.75;;;40.20
76713;BMP280;65640;43.154;25.658;2023-07-13T13:58:07;100361.06;;;39.94
76713;BMP280;65640;43.154;25.658;2023-07-13T14:00:33;100365.56;;;39.97
76713;BMP280;65640;43.154;25.658;2023-07-13T14:02:58;100359.38;;;40.02
76713;BMP280;65640;43.154;25.658;2023-07-13T14:05:25;100357.72;;;39.85
76713;BMP280;65640;43.154;25.658;2023-07-13T14:07:52;100357.34;;;39.66
76713;BMP280;65640;43.154;25.658;2023-07-13T14:10:19;100362.81;;;39.66
76713;BMP280;65640;43.154;25.658;2023-07-13T14:12:51;100351.84;;;39.66
76713;BMP280;65640;43.154;25.658;2023-07-13T14:15:20;100357.06;;;39.64
76713;BMP280;65640;43.154;25.658;2023-07-13T14:17:46;100353.75;;;39.86
76713;BMP280;65640;43.154;25.658;2023-07-13T14:20:15;100353.09;;;39.96
76713;BMP280;65640;43.154;25.658;2023-07-13T14:22:40;100354.91;;;40.10
76713;BMP280;65640;43.154;25.658;2023-07-13T14:25:11;100353.91;;;40.02